| time (UTC) | temp F | wind direction | speed MPH | gust MPH | rain 1hr in | rain 24hr in | rain mn in | humidity % | barometer mb |
| 20260903143108 | 75 | 302 | 4.0 | 8.0 | 0.00 | 0.00 | 0.00 | 44 | 1018.8 |
| 20260903141608 | 76 | 301 | 4.0 | 12.0 | 0.00 | 0.00 | 0.00 | 41 | 1019.0 |
| 20260903140108 | 76 | 326 | 9.0 | 16.0 | 0.00 | 0.00 | 0.00 | 41 | 1018.9 |
| 20260903134614 | 76 | 253 | 2.0 | 11.0 | 0.00 | 0.00 | 0.00 | 41 | 1018.9 |
| 20260903133112 | 77 | 238 | 3.0 | 10.0 | 0.00 | 0.00 | 0.00 | 43 | 1019.0 |
| 20260903131614 | 78 | 299 | 4.0 | 10.0 | 0.00 | 0.00 | 0.00 | 45 | 1019.0 |
| 20260903130112 | 77 | 290 | 5.0 | 10.0 | 0.00 | 0.00 | 0.00 | 47 | 1018.9 |
| 20260903124612 | 76 | 250 | 3.0 | 8.0 | 0.00 | 0.00 | 0.00 | 47 | 1019.0 |
| 20260903123112 | 77 | 276 | 4.0 | 10.0 | 0.00 | 0.00 | 0.00 | 46 | 1019.2 |
| 20260903121612 | 76 | 301 | 0.0 | 7.0 | 0.00 | 0.00 | 0.00 | 47 | 1019.3 |
| 20260903114612 | 76 | 276 | 4.0 | 9.0 | 0.00 | 0.00 | 0.00 | 46 | 1019.7 |
| 20260903113111 | 75 | 269 | 4.0 | 11.0 | 0.00 | 0.00 | 0.00 | 46 | 1019.7 |
| 20260903111613 | 75 | 317 | 8.0 | 14.0 | 0.00 | 0.00 | 0.00 | 49 | 1020.0 |
| 20260903110111 | 75 | 227 | 3.0 | 13.0 | 0.00 | 0.00 | 0.00 | 50 | 1020.0 |
| 20260903104611 | 76 | 292 | 5.0 | 10.0 | 0.00 | 0.00 | 0.00 | 48 | 1020.0 |
| 20260903103111 | 76 | 246 | 4.0 | 10.0 | 0.00 | 0.00 | 0.00 | 48 | 1020.5 |
| 20260903101611 | 75 | 350 | 4.0 | 12.0 | 0.00 | 0.00 | 0.00 | 52 | 1020.0 |
| 20260903100111 | 76 | 273 | 8.0 | 12.0 | 0.00 | 0.00 | 0.00 | 51 | 1020.3 |
| 20260903094611 | 76 | 247 | 5.0 | 12.0 | 0.00 | 0.00 | 0.00 | 47 | 1020.2 |
| 20260903093110 | 74 | 19 | 3.0 | 6.0 | 0.00 | 0.00 | 0.00 | 53 | 1020.3 |
| 20260903091610 | 74 | 274 | 5.0 | 9.0 | 0.00 | 0.00 | 0.00 | 54 | 1020.6 |
| 20260903090110 | 75 | 259 | 4.0 | 11.0 | 0.00 | 0.00 | 0.00 | 54 | 1020.7 |
| 20260903084610 | 72 | 278 | 4.0 | 8.0 | 0.00 | 0.00 | 0.00 | 58 | 1020.8 |
| 20260903074609 | 66 | 188 | 0.0 | 0.0 | 0.00 | 0.00 | 0.00 | 73 | 1020.7 |
| 20260903073109 | 65 | 188 | 0.0 | 0.0 | 0.00 | 0.00 | 0.00 | 74 | 1020.8 |
| 20260903071609 | 63 | 188 | 0.0 | 0.0 | 0.00 | 0.00 | 0.00 | 73 | 1020.7 |
| 20260903070109 | 63 | 188 | 0.0 | 0.0 | 0.00 | 0.00 | 0.00 | 75 | 1020.7 |
| 20260903064609 | 62 | 188 | 0.0 | 0.0 | 0.00 | 0.00 | 0.00 | 78 | 1020.6 |
| 20260903063109 | 62 | 279 | 0.0 | 0.0 | 0.00 | 0.00 | 0.00 | 80 | 1020.5 |
| 20260903061609 | 61 | 300 | 0.0 | 0.0 | 0.00 | 0.00 | 0.00 | 81 | 1020.6 |
| 20260903060109 | 60 | 313 | 0.0 | 0.0 | 0.00 | 0.00 | 0.00 | 83 | 1020.7 |
| 20260903054609 | 59 | 313 | 0.0 | 0.0 | 0.00 | 0.00 | 0.00 | 83 | 1020.4 |
| 20260903051609 | 58 | 313 | 0.0 | 0.0 | 0.00 | 0.00 | 0.00 | 85 | 1020.4 |
| 20260903050109 | 57 | 313 | 0.0 | 0.0 | 0.00 | 0.00 | 0.00 | 86 | 1020.4 |
| 20260903044608 | 57 | 313 | 0.0 | 0.0 | 0.00 | 0.00 | 0.00 | 85 | 1020.3 |
| 20260903043108 | 56 | 313 | 0.0 | 0.0 | 0.00 | 0.00 | 0.00 | 86 | 1020.3 |
| 20260903041608 | 56 | 313 | 0.0 | 0.0 | 0.00 | 0.00 | 0.00 | 85 | 1020.5 |
| 20260903040108 | 56 | 313 | 0.0 | 0.0 | 0.00 | 0.00 | 0.00 | 85 | 1020.5 |
| 20260903034608 | 56 | 313 | 0.0 | 0.0 | 0.00 | 0.00 | 0.00 | 85 | 1020.4 |
| 20260903031608 | 57 | 313 | 1.0 | 3.0 | 0.00 | 0.00 | 0.00 | 83 | 1020.1 |
| 20260903030108 | 57 | 309 | 0.0 | 0.0 | 0.00 | 0.00 | 0.00 | 82 | 1020.3 |
| 20260903024613 | 58 | 309 | 0.0 | 0.0 | 0.00 | 0.00 | 0.00 | 81 | 1020.4 |
| 20260903023113 | 58 | 311 | 2.0 | 3.0 | 0.00 | 0.00 | 0.00 | 82 | 1020.2 |
| 20260903021612 | 57 | 330 | 2.0 | 4.0 | 0.00 | 0.00 | 0.00 | 83 | 1020.2 |
| 20260903020112 | 57 | 315 | 0.0 | 0.0 | 0.00 | 0.00 | 0.00 | 83 | 1020.3 |
| 20260903014614 | 57 | 315 | 0.0 | 0.0 | 0.00 | 0.00 | 0.00 | 83 | 1020.5 |
| 20260903013112 | 57 | 315 | 0.0 | 0.0 | 0.00 | 0.00 | 0.00 | 82 | 1020.5 |
| 20260903011612 | 58 | 316 | 0.0 | 0.0 | 0.00 | 0.00 | 0.00 | 81 | 1020.5 |
| 20260903010112 | 58 | 316 | 0.0 | 0.0 | 0.00 | 0.00 | 0.00 | 80 | 1020.6 |
| 20260903004612 | 58 | 316 | 0.0 | 0.0 | 0.00 | 0.00 | 0.00 | 79 | 1020.6 |
| 20260903001612 | 59 | 323 | 1.0 | 2.0 | 0.00 | 0.00 | 0.00 | 78 | 1020.5 |
| 20260903000112 | 59 | 302 | 5.0 | 8.0 | 0.00 | 0.00 | 0.00 | 78 | 1020.6 |
| 20260902234613 | 59 | 310 | 1.0 | 3.0 | 0.00 | 0.00 | 0.00 | 78 | 1020.5 |
| 20260902233111 | 60 | 319 | 0.0 | 1.0 | 0.00 | 0.00 | 0.00 | 76 | 1020.4 |
| 20260902231611 | 60 | 319 | 0.0 | 2.0 | 0.00 | 0.00 | 0.00 | 75 | 1020.4 |
| 20260902224611 | 62 | 306 | 2.0 | 3.0 | 0.00 | 0.00 | 0.00 | 73 | 1020.5 |
| 20260902223111 | 62 | 301 | 1.0 | 2.0 | 0.00 | 0.00 | 0.00 | 71 | 1020.5 |
| 20260902221612 | 63 | 323 | 0.0 | 0.0 | 0.00 | 0.00 | 0.00 | 70 | 1020.4 |
| 20260902220111 | 64 | 329 | 0.0 | 0.0 | 0.00 | 0.00 | 0.00 | 69 | 1020.5 |
| 20260902214610 | 65 | 329 | 1.0 | 3.0 | 0.00 | 0.00 | 0.00 | 68 | 1020.5 |
| 20260902213110 | 66 | 331 | 0.0 | 0.0 | 0.00 | 0.00 | 0.00 | 65 | 1020.3 |
| 20260902211610 | 67 | 331 | 0.0 | 1.0 | 0.00 | 0.00 | 0.00 | 63 | 1020.3 |
| 20260902210110 | 68 | 325 | 3.0 | 4.0 | 0.00 | 0.00 | 0.00 | 61 | 1020.1 |
| 20260902203110 | 69 | 351 | 3.0 | 6.0 | 0.00 | 0.00 | 0.00 | 58 | 1020.0 |
| 20260902201610 | 69 | 5 | 3.0 | 6.0 | 0.00 | 0.00 | 0.00 | 57 | 1020.0 |
| 20260902200110 | 69 | 351 | 3.0 | 6.0 | 0.00 | 0.00 | 0.00 | 56 | 1019.9 |
| 20260902194610 | 70 | 327 | 6.0 | 8.0 | 0.00 | 0.00 | 0.00 | 55 | 1019.9 |
| 20260902193110 | 70 | 325 | 4.0 | 8.0 | 0.00 | 0.00 | 0.00 | 53 | 1020.0 |
| 20260902190109 | 69 | 360 | 2.0 | 5.0 | 0.00 | 0.00 | 0.00 | 54 | 1020.0 |
| 20260902184609 | 70 | 344 | 2.0 | 4.0 | 0.00 | 0.00 | 0.00 | 52 | 1020.0 |
| 20260902183109 | 70 | 337 | 3.0 | 6.0 | 0.00 | 0.00 | 0.00 | 51 | 1019.9 |
| 20260902181610 | 71 | 330 | 3.0 | 7.0 | 0.00 | 0.00 | 0.00 | 51 | 1019.9 |
| 20260902174609 | 72 | 309 | 3.0 | 4.0 | 0.00 | 0.00 | 0.00 | 48 | 1019.5 |
| 20260902173109 | 72 | 313 | 3.0 | 7.0 | 0.00 | 0.00 | 0.00 | 48 | 1019.4 |
| 20260902170109 | 75 | 285 | 2.0 | 5.0 | 0.00 | 0.00 | 0.00 | 44 | 1019.1 |
| 20260902164609 | 76 | 336 | 2.0 | 4.0 | 0.00 | 0.00 | 0.00 | 44 | 1019.2 |
| 20260902163109 | 77 | 310 | 1.0 | 4.0 | 0.00 | 0.00 | 0.00 | 42 | 1019.2 |
| 20260902161609 | 51 | 317 | 0.0 | 0.0 | 0.00 | 0.00 | 0.00 | 90 | 1021.9 |
| 20260902160109 | 79 | 307 | 2.0 | 4.0 | 0.00 | 0.00 | 0.00 | 39 | 1019.2 |
| 20260902154609 | 78 | 277 | 6.0 | 11.0 | 0.00 | 0.00 | 0.00 | 39 | 1019.2 |
| 20260902153113 | 78 | 290 | 0.0 | 7.0 | 0.00 | 0.00 | 0.00 | 40 | 1019.4 |
| 20260902151613 | 78 | 236 | 1.0 | 7.0 | 0.00 | 0.00 | 0.00 | 41 | 1019.3 |
| 20260902150113 | 62 | 335 | 1.0 | 2.0 | 0.00 | 0.00 | 0.00 | 68 | 1021.3 |
| 20260902144613 | 78 | 269 | 4.0 | 7.0 | 0.00 | 0.00 | 0.00 | 41 | 1019.6 |